sensor_id;sensor_type;location;lat;lon;timestamp;P1;durP1;ratioP1;P2;durP2;ratioP2
21507;SDS011;10915;54.352;9.074;2023-07-31T00:00:43;6.90;;;2.23;;
21507;SDS011;10915;54.352;9.074;2023-07-31T00:03:11;6.47;;;2.20;;
21507;SDS011;10915;54.352;9.074;2023-07-31T00:05:36;6.70;;;2.33;;
21507;SDS011;10915;54.352;9.074;2023-07-31T00:08:02;10.10;;;2.27;;
21507;SDS011;10915;54.352;9.074;2023-07-31T00:10:28;8.07;;;2.30;;
21507;SDS011;10915;54.352;9.074;2023-07-31T00:12:53;10.97;;;2.80;;
21507;SDS011;10915;54.352;9.074;2023-07-31T00:15:19;7.23;;;2.37;;
21507;SDS011;10915;54.352;9.074;2023-07-31T00:17:45;10.37;;;2.07;;
21507;SDS011;10915;54.352;9.074;2023-07-31T00:20:10;7.60;;;2.33;;
21507;SDS011;10915;54.352;9.074;2023-07-31T00:22:36;7.50;;;2.20;;
21507;SDS011;10915;54.352;9.074;2023-07-31T00:25:01;12.13;;;2.17;;
21507;SDS011;10915;54.352;9.074;2023-07-31T00:27:27;7.93;;;2.10;;
21507;SDS011;10915;54.352;9.074;2023-07-31T00:29:53;7.70;;;2.03;;
21507;SDS011;10915;54.352;9.074;2023-07-31T00:32:18;7.17;;;2.10;;
21507;SDS011;10915;54.352;9.074;2023-07-31T00:34:47;8.00;;;2.10;;
21507;SDS011;10915;54.352;9.074;2023-07-31T00:37:13;10.03;;;2.57;;
21507;SDS011;10915;54.352;9.074;2023-07-31T00:39:38;10.77;;;2.30;;
21507;SDS011;10915;54.352;9.074;2023-07-31T00:42:04;6.37;;;2.77;;
21507;SDS011;10915;54.352;9.074;2023-07-31T00:44:30;7.83;;;3.10;;
21507;SDS011;10915;54.352;9.074;2023-07-31T00:46:55;12.40;;;3.20;;
21507;SDS011;10915;54.352;9.074;2023-07-31T00:49:22;11.87;;;3.13;;
21507;SDS011;10915;54.352;9.074;2023-07-31T00:51:48;9.80;;;3.50;;
21507;SDS011;10915;54.352;9.074;2023-07-31T00:54:14;13.33;;;3.80;;
21507;SDS011;10915;54.352;9.074;2023-07-31T00:56:39;9.97;;;3.20;;
21507;SDS011;10915;54.352;9.074;2023-07-31T00:59:07;8.03;;;3.20;;
21507;SDS011;10915;54.352;9.074;2023-07-31T01:01:32;13.43;;;3.60;;
21507;SDS011;10915;54.352;9.074;2023-07-31T01:03:58;10.77;;;3.53;;
21507;SDS011;10915;54.352;9.074;2023-07-31T01:06:31;10.77;;;3.50;;
21507;SDS011;10915;54.352;9.074;2023-07-31T01:09:20;9.87;;;3.23;;
21507;SDS011;10915;54.352;9.074;2023-07-31T01:12:09;11.67;;;3.20;;
21507;SDS011;10915;54.352;9.074;2023-07-31T01:17:45;9.70;;;3.13;;
21507;SDS011;10915;54.352;9.074;2023-07-31T01:20:18;10.87;;;3.67;;
21507;SDS011;10915;54.352;9.074;2023-07-31T01:28:16;10.70;;;3.10;;
21507;SDS011;10915;54.352;9.074;2023-07-31T01:30:48;11.93;;;3.43;;
21507;SDS011;10915;54.352;9.074;2023-07-31T01:33:17;10.57;;;2.80;;
21507;SDS011;10915;54.352;9.074;2023-07-31T01:35:44;11.23;;;3.77;;
21507;SDS011;10915;54.352;9.074;2023-07-31T01:38:11;8.93;;;2.43;;
21507;SDS011;10915;54.352;9.074;2023-07-31T01:40:37;9.63;;;2.67;;
21507;SDS011;10915;54.352;9.074;2023-07-31T01:43:02;9.40;;;2.80;;
21507;SDS011;10915;54.352;9.074;2023-07-31T01:45:28;8.73;;;2.60;;
21507;SDS011;10915;54.352;9.074;2023-07-31T01:47:54;10.27;;;2.90;;
21507;SDS011;10915;54.352;9.074;2023-07-31T01:50:19;11.03;;;2.90;;
21507;SDS011;10915;54.352;9.074;2023-07-31T01:52:45;11.97;;;3.00;;
21507;SDS011;10915;54.352;9.074;2023-07-31T01:55:11;12.23;;;2.93;;
21507;SDS011;10915;54.352;9.074;2023-07-31T01:57:36;8.90;;;3.10;;
21507;SDS011;10915;54.352;9.074;2023-07-31T02:00:02;10.23;;;3.20;;
21507;SDS011;10915;54.352;9.074;2023-07-31T02:02:28;7.07;;;3.03;;
21507;SDS011;10915;54.352;9.074;2023-07-31T02:04:54;9.17;;;3.00;;
21507;SDS011;10915;54.352;9.074;2023-07-31T02:07:20;9.87;;;3.40;;
21507;SDS011;10915;54.352;9.074;2023-07-31T02:09:45;8.50;;;2.93;;
21507;SDS011;10915;54.352;9.074;2023-07-31T02:12:13;7.47;;;3.07;;
21507;SDS011;10915;54.352;9.074;2023-07-31T02:14:39;6.73;;;2.70;;
21507;SDS011;10915;54.352;9.074;2023-07-31T02:17:05;9.30;;;2.73;;
21507;SDS011;10915;54.352;9.074;2023-07-31T02:19:31;8.47;;;3.07;;
21507;SDS011;10915;54.352;9.074;2023-07-31T02:21:56;7.03;;;2.83;;
21507;SDS011;10915;54.352;9.074;2023-07-31T02:24:22;7.13;;;3.00;;
21507;SDS011;10915;54.352;9.074;2023-07-31T02:26:49;7.53;;;2.97;;
21507;SDS011;10915;54.352;9.074;2023-07-31T02:29:14;8.27;;;2.87;;
21507;SDS011;10915;54.352;9.074;2023-07-31T02:31:40;8.27;;;3.17;;
21507;SDS011;10915;54.352;9.074;2023-07-31T02:34:06;7.70;;;3.07;;
21507;SDS011;10915;54.352;9.074;2023-07-31T02:36:31;9.70;;;4.03;;
21507;SDS011;10915;54.352;9.074;2023-07-31T02:38:57;9.03;;;3.30;;
21507;SDS011;10915;54.352;9.074;2023-07-31T02:41:22;6.80;;;3.23;;
21507;SDS011;10915;54.352;9.074;2023-07-31T02:43:48;9.03;;;3.10;;
21507;SDS011;10915;54.352;9.074;2023-07-31T02:46:14;9.60;;;3.23;;
21507;SDS011;10915;54.352;9.074;2023-07-31T02:48:39;8.07;;;3.13;;
21507;SDS011;10915;54.352;9.074;2023-07-31T02:51:07;7.37;;;3.20;;
21507;SDS011;10915;54.352;9.074;2023-07-31T02:53:40;14.03;;;3.20;;
21507;SDS011;10915;54.352;9.074;2023-07-31T02:56:13;9.20;;;3.00;;
21507;SDS011;10915;54.352;9.074;2023-07-31T02:58:44;11.40;;;4.10;;
21507;SDS011;10915;54.352;9.074;2023-07-31T03:01:16;10.53;;;3.80;;
21507;SDS011;10915;54.352;9.074;2023-07-31T03:03:42;19.07;;;6.13;;
21507;SDS011;10915;54.352;9.074;2023-07-31T03:06:07;14.00;;;6.23;;
21507;SDS011;10915;54.352;9.074;2023-07-31T03:08:33;17.23;;;8.27;;
21507;SDS011;10915;54.352;9.074;2023-07-31T03:11:02;15.97;;;8.03;;
21507;SDS011;10915;54.352;9.074;2023-07-31T03:13:31;13.33;;;7.93;;
21507;SDS011;10915;54.352;9.074;2023-07-31T03:16:20;13.70;;;7.83;;
21507;SDS011;10915;54.352;9.074;2023-07-31T03:18:51;11.10;;;5.30;;
21507;SDS011;10915;54.352;9.074;2023-07-31T03:21:23;14.60;;;5.10;;
21507;SDS011;10915;54.352;9.074;2023-07-31T03:23:49;12.43;;;3.80;;
21507;SDS011;10915;54.352;9.074;2023-07-31T03:26:15;10.10;;;3.00;;
21507;SDS011;10915;54.352;9.074;2023-07-31T03:28:49;10.37;;;3.70;;
21507;SDS011;10915;54.352;9.074;2023-07-31T03:31:15;13.70;;;4.70;;
21507;SDS011;10915;54.352;9.074;2023-07-31T03:33:41;11.73;;;4.03;;
21507;SDS011;10915;54.352;9.074;2023-07-31T03:36:07;11.00;;;3.57;;
21507;SDS011;10915;54.352;9.074;2023-07-31T03:38:34;11.73;;;3.80;;
21507;SDS011;10915;54.352;9.074;2023-07-31T03:41:00;8.57;;;3.70;;
21507;SDS011;10915;54.352;9.074;2023-07-31T03:43:25;11.17;;;3.87;;
21507;SDS011;10915;54.352;9.074;2023-07-31T03:45:51;11.87;;;4.43;;
21507;SDS011;10915;54.352;9.074;2023-07-31T03:48:17;10.40;;;4.03;;
21507;SDS011;10915;54.352;9.074;2023-07-31T03:50:45;11.87;;;4.53;;
21507;SDS011;10915;54.352;9.074;2023-07-31T03:53:11;8.93;;;4.50;;
21507;SDS011;10915;54.352;9.074;2023-07-31T03:55:40;6.73;;;4.33;;
21507;SDS011;10915;54.352;9.074;2023-07-31T03:58:06;11.87;;;6.57;;
21507;SDS011;10915;54.352;9.074;2023-07-31T04:00:31;14.60;;;7.30;;
21507;SDS011;10915;54.352;9.074;2023-07-31T04:02:57;12.20;;;7.63;;
21507;SDS011;10915;54.352;9.074;2023-07-31T04:05:23;15.83;;;8.13;;
21507;SDS011;10915;54.352;9.074;2023-07-31T04:07:48;12.93;;;7.97;;
21507;SDS011;10915;54.352;9.074;2023-07-31T04:10:14;11.13;;;7.60;;
21507;SDS011;10915;54.352;9.074;2023-07-31T04:12:39;13.63;;;7.97;;
21507;SDS011;10915;54.352;9.074;2023-07-31T04:15:05;15.03;;;8.40;;
21507;SDS011;10915;54.352;9.074;2023-07-31T04:17:31;14.77;;;8.17;;
21507;SDS011;10915;54.352;9.074;2023-07-31T04:19:57;12.77;;;7.97;;
21507;SDS011;10915;54.352;9.074;2023-07-31T04:22:24;11.10;;;7.33;;
21507;SDS011;10915;54.352;9.074;2023-07-31T04:24:50;13.90;;;7.70;;
21507;SDS011;10915;54.352;9.074;2023-07-31T04:27:15;11.50;;;6.97;;
21507;SDS011;10915;54.352;9.074;2023-07-31T04:29:42;14.13;;;6.97;;
21507;SDS011;10915;54.352;9.074;2023-07-31T04:32:10;8.77;;;6.53;;
21507;SDS011;10915;54.352;9.074;2023-07-31T04:34:36;11.67;;;7.30;;
21507;SDS011;10915;54.352;9.074;2023-07-31T04:37:02;13.03;;;7.00;;
21507;SDS011;10915;54.352;9.074;2023-07-31T04:39:28;15.70;;;6.80;;
21507;SDS011;10915;54.352;9.074;2023-07-31T04:41:53;11.73;;;6.47;;
21507;SDS011;10915;54.352;9.074;2023-07-31T04:44:19;10.50;;;6.03;;
21507;SDS011;10915;54.352;9.074;2023-07-31T04:46:45;10.43;;;5.87;;
21507;SDS011;10915;54.352;9.074;2023-07-31T04:49:11;10.20;;;5.93;;
21507;SDS011;10915;54.352;9.074;2023-07-31T04:51:37;11.57;;;5.87;;
21507;SDS011;10915;54.352;9.074;2023-07-31T04:54:06;10.83;;;5.30;;
21507;SDS011;10915;54.352;9.074;2023-07-31T04:56:32;10.20;;;5.53;;
21507;SDS011;10915;54.352;9.074;2023-07-31T04:58:57;15.03;;;5.70;;
21507;SDS011;10915;54.352;9.074;2023-07-31T05:01:23;10.33;;;5.47;;
21507;SDS011;10915;54.352;9.074;2023-07-31T05:03:48;9.30;;;4.90;;
21507;SDS011;10915;54.352;9.074;2023-07-31T05:06:14;7.93;;;4.90;;
21507;SDS011;10915;54.352;9.074;2023-07-31T05:08:40;10.23;;;5.47;;
21507;SDS011;10915;54.352;9.074;2023-07-31T05:11:06;9.60;;;5.40;;
21507;SDS011;10915;54.352;9.074;2023-07-31T05:13:31;11.27;;;4.87;;
21507;SDS011;10915;54.352;9.074;2023-07-31T05:15:57;9.23;;;4.70;;
21507;SDS011;10915;54.352;9.074;2023-07-31T05:18:23;8.47;;;4.30;;
21507;SDS011;10915;54.352;9.074;2023-07-31T05:20:48;9.80;;;5.10;;
21507;SDS011;10915;54.352;9.074;2023-07-31T05:23:14;7.60;;;4.07;;
21507;SDS011;10915;54.352;9.074;2023-07-31T05:25:40;9.23;;;4.43;;
21507;SDS011;10915;54.352;9.074;2023-07-31T05:28:05;6.23;;;4.10;;
21507;SDS011;10915;54.352;9.074;2023-07-31T05:30:31;8.47;;;4.23;;
21507;SDS011;10915;54.352;9.074;2023-07-31T05:32:57;9.13;;;4.43;;
21507;SDS011;10915;54.352;9.074;2023-07-31T05:35:22;9.67;;;3.90;;
21507;SDS011;10915;54.352;9.074;2023-07-31T05:37:48;6.63;;;3.67;;
21507;SDS011;10915;54.352;9.074;2023-07-31T05:40:13;7.67;;;3.53;;
21507;SDS011;10915;54.352;9.074;2023-07-31T05:42:39;6.43;;;3.23;;
21507;SDS011;10915;54.352;9.074;2023-07-31T05:45:06;6.23;;;3.13;;
21507;SDS011;10915;54.352;9.074;2023-07-31T05:47:32;9.67;;;3.63;;
21507;SDS011;10915;54.352;9.074;2023-07-31T05:50:00;8.47;;;3.40;;
21507;SDS011;10915;54.352;9.074;2023-07-31T05:52:25;6.07;;;2.67;;
21507;SDS011;10915;54.352;9.074;2023-07-31T05:54:51;5.40;;;2.40;;
21507;SDS011;10915;54.352;9.074;2023-07-31T05:57:17;6.70;;;2.80;;
21507;SDS011;10915;54.352;9.074;2023-07-31T05:59:42;6.13;;;2.43;;
21507;SDS011;10915;54.352;9.074;2023-07-31T06:02:08;5.40;;;2.23;;
21507;SDS011;10915;54.352;9.074;2023-07-31T06:04:34;7.77;;;2.70;;
21507;SDS011;10915;54.352;9.074;2023-07-31T06:07:05;5.40;;;2.40;;
21507;SDS011;10915;54.352;9.074;2023-07-31T06:09:31;5.70;;;2.20;;
21507;SDS011;10915;54.352;9.074;2023-07-31T06:11:57;4.33;;;2.30;;
21507;SDS011;10915;54.352;9.074;2023-07-31T06:14:23;6.50;;;2.60;;
21507;SDS011;10915;54.352;9.074;2023-07-31T06:16:49;6.87;;;2.43;;
21507;SDS011;10915;54.352;9.074;2023-07-31T06:19:15;5.57;;;2.60;;
21507;SDS011;10915;54.352;9.074;2023-07-31T06:21:40;7.50;;;2.47;;
21507;SDS011;10915;54.352;9.074;2023-07-31T06:24:08;4.50;;;2.10;;
21507;SDS011;10915;54.352;9.074;2023-07-31T06:26:34;6.43;;;2.63;;
21507;SDS011;10915;54.352;9.074;2023-07-31T06:29:00;5.50;;;2.50;;
21507;SDS011;10915;54.352;9.074;2023-07-31T06:31:34;4.07;;;2.20;;
21507;SDS011;10915;54.352;9.074;2023-07-31T06:34:00;7.30;;;2.77;;
21507;SDS011;10915;54.352;9.074;2023-07-31T06:36:45;6.13;;;2.23;;
21507;SDS011;10915;54.352;9.074;2023-07-31T06:39:11;8.73;;;2.47;;
21507;SDS011;10915;54.352;9.074;2023-07-31T06:42:01;7.27;;;2.13;;
21507;SDS011;10915;54.352;9.074;2023-07-31T06:44:36;5.87;;;2.00;;
21507;SDS011;10915;54.352;9.074;2023-07-31T06:47:02;8.10;;;2.23;;
21507;SDS011;10915;54.352;9.074;2023-07-31T06:49:28;7.50;;;2.40;;
21507;SDS011;10915;54.352;9.074;2023-07-31T06:52:07;6.53;;;2.03;;
21507;SDS011;10915;54.352;9.074;2023-07-31T06:55:03;5.20;;;2.00;;
21507;SDS011;10915;54.352;9.074;2023-07-31T06:57:44;7.80;;;2.20;;
21507;SDS011;10915;54.352;9.074;2023-07-31T07:00:19;5.53;;;1.93;;
21507;SDS011;10915;54.352;9.074;2023-07-31T07:02:49;5.83;;;1.83;;
21507;SDS011;10915;54.352;9.074;2023-07-31T07:05:25;5.40;;;1.87;;
21507;SDS011;10915;54.352;9.074;2023-07-31T07:07:54;7.13;;;2.40;;
21507;SDS011;10915;54.352;9.074;2023-07-31T07:10:19;5.37;;;1.80;;
21507;SDS011;10915;54.352;9.074;2023-07-31T07:12:45;3.63;;;1.33;;
21507;SDS011;10915;54.352;9.074;2023-07-31T07:15:20;6.10;;;1.80;;
21507;SDS011;10915;54.352;9.074;2023-07-31T07:17:50;5.57;;;1.80;;
21507;SDS011;10915;54.352;9.074;2023-07-31T07:20:15;5.43;;;2.03;;
21507;SDS011;10915;54.352;9.074;2023-07-31T07:22:41;7.40;;;2.37;;
21507;SDS011;10915;54.352;9.074;2023-07-31T07:25:08;6.90;;;2.10;;
21507;SDS011;10915;54.352;9.074;2023-07-31T07:27:34;8.80;;;2.50;;
21507;SDS011;10915;54.352;9.074;2023-07-31T07:30:00;6.13;;;2.10;;
21507;SDS011;10915;54.352;9.074;2023-07-31T07:32:26;5.90;;;1.83;;
21507;SDS011;10915;54.352;9.074;2023-07-31T07:34:52;5.83;;;2.30;;
21507;SDS011;10915;54.352;9.074;2023-07-31T07:37:17;7.60;;;2.53;;
21507;SDS011;10915;54.352;9.074;2023-07-31T07:39:43;6.93;;;2.13;;
21507;SDS011;10915;54.352;9.074;2023-07-31T07:42:09;8.60;;;2.30;;
21507;SDS011;10915;54.352;9.074;2023-07-31T07:44:35;7.57;;;2.47;;
21507;SDS011;10915;54.352;9.074;2023-07-31T07:47:01;10.03;;;2.30;;
21507;SDS011;10915;54.352;9.074;2023-07-31T07:49:27;11.53;;;2.80;;
21507;SDS011;10915;54.352;9.074;2023-07-31T07:51:56;5.57;;;2.13;;
21507;SDS011;10915;54.352;9.074;2023-07-31T07:54:22;9.70;;;1.93;;
21507;SDS011;10915;54.352;9.074;2023-07-31T07:56:48;7.07;;;2.33;;
21507;SDS011;10915;54.352;9.074;2023-07-31T07:59:14;7.20;;;2.30;;
21507;SDS011;10915;54.352;9.074;2023-07-31T08:01:43;7.03;;;2.47;;
21507;SDS011;10915;54.352;9.074;2023-07-31T08:04:11;11.40;;;2.80;;
21507;SDS011;10915;54.352;9.074;2023-07-31T08:06:36;6.97;;;2.30;;
21507;SDS011;10915;54.352;9.074;2023-07-31T08:09:02;7.70;;;2.97;;
21507;SDS011;10915;54.352;9.074;2023-07-31T08:11:31;8.63;;;2.40;;
21507;SDS011;10915;54.352;9.074;2023-07-31T08:13:59;9.20;;;2.70;;
21507;SDS011;10915;54.352;9.074;2023-07-31T08:16:25;8.00;;;2.50;;
21507;SDS011;10915;54.352;9.074;2023-07-31T08:18:51;6.87;;;2.30;;
21507;SDS011;10915;54.352;9.074;2023-07-31T08:21:21;4.60;;;1.70;;
21507;SDS011;10915;54.352;9.074;2023-07-31T08:23:49;8.17;;;2.30;;
21507;SDS011;10915;54.352;9.074;2023-07-31T08:26:15;6.77;;;1.90;;
21507;SDS011;10915;54.352;9.074;2023-07-31T08:28:44;9.27;;;2.67;;
21507;SDS011;10915;54.352;9.074;2023-07-31T08:31:10;5.40;;;2.07;;
21507;SDS011;10915;54.352;9.074;2023-07-31T08:33:36;8.03;;;1.90;;
21507;SDS011;10915;54.352;9.074;2023-07-31T08:36:02;6.30;;;2.03;;
21507;SDS011;10915;54.352;9.074;2023-07-31T08:38:28;5.37;;;1.70;;
21507;SDS011;10915;54.352;9.074;2023-07-31T08:40:56;5.10;;;1.93;;
21507;SDS011;10915;54.352;9.074;2023-07-31T08:43:25;4.23;;;2.20;;
21507;SDS011;10915;54.352;9.074;2023-07-31T08:45:51;8.13;;;2.77;;
21507;SDS011;10915;54.352;9.074;2023-07-31T08:48:17;4.70;;;2.30;;
21507;SDS011;10915;54.352;9.074;2023-07-31T08:50:45;5.40;;;2.10;;
21507;SDS011;10915;54.352;9.074;2023-07-31T08:53:11;6.90;;;2.70;;
21507;SDS011;10915;54.352;9.074;2023-07-31T08:55:37;4.53;;;1.93;;
21507;SDS011;10915;54.352;9.074;2023-07-31T08:58:03;4.97;;;2.00;;
21507;SDS011;10915;54.352;9.074;2023-07-31T09:00:30;4.43;;;2.20;;
21507;SDS011;10915;54.352;9.074;2023-07-31T09:03:07;9.20;;;2.20;;
21507;SDS011;10915;54.352;9.074;2023-07-31T09:05:37;5.17;;;2.20;;
21507;SDS011;10915;54.352;9.074;2023-07-31T09:08:06;5.67;;;2.20;;
21507;SDS011;10915;54.352;9.074;2023-07-31T09:10:34;5.00;;;1.83;;
21507;SDS011;10915;54.352;9.074;2023-07-31T09:12:59;6.23;;;2.20;;
21507;SDS011;10915;54.352;9.074;2023-07-31T09:15:25;6.07;;;2.30;;
21507;SDS011;10915;54.352;9.074;2023-07-31T09:18:00;7.47;;;3.90;;
21507;SDS011;10915;54.352;9.074;2023-07-31T09:20:26;5.97;;;2.60;;
21507;SDS011;10915;54.352;9.074;2023-07-31T09:22:52;5.83;;;2.50;;
21507;SDS011;10915;54.352;9.074;2023-07-31T09:25:27;5.87;;;2.43;;
21507;SDS011;10915;54.352;9.074;2023-07-31T09:27:59;4.47;;;2.53;;
21507;SDS011;10915;54.352;9.074;2023-07-31T09:30:26;6.30;;;3.27;;
21507;SDS011;10915;54.352;9.074;2023-07-31T09:33:00;5.83;;;2.63;;
21507;SDS011;10915;54.352;9.074;2023-07-31T09:35:32;6.07;;;2.50;;
21507;SDS011;10915;54.352;9.074;2023-07-31T09:38:00;5.37;;;3.23;;
21507;SDS011;10915;54.352;9.074;2023-07-31T09:43:02;6.47;;;3.00;;
21507;SDS011;10915;54.352;9.074;2023-07-31T09:45:29;5.50;;;2.90;;
21507;SDS011;10915;54.352;9.074;2023-07-31T09:47:55;6.93;;;3.03;;
21507;SDS011;10915;54.352;9.074;2023-07-31T09:50:22;5.63;;;3.13;;
21507;SDS011;10915;54.352;9.074;2023-07-31T09:52:49;6.93;;;2.30;;
21507;SDS011;10915;54.352;9.074;2023-07-31T09:55:15;4.13;;;2.57;;
21507;SDS011;10915;54.352;9.074;2023-07-31T09:57:42;4.50;;;2.80;;
21507;SDS011;10915;54.352;9.074;2023-07-31T10:00:10;4.87;;;1.73;;
21507;SDS011;10915;54.352;9.074;2023-07-31T10:02:37;3.80;;;2.20;;
21507;SDS011;10915;54.352;9.074;2023-07-31T10:05:05;6.30;;;2.07;;
21507;SDS011;10915;54.352;9.074;2023-07-31T10:07:33;3.10;;;1.70;;
21507;SDS011;10915;54.352;9.074;2023-07-31T10:10:03;2.50;;;1.50;;
21507;SDS011;10915;54.352;9.074;2023-07-31T10:12:29;5.63;;;2.00;;
21507;SDS011;10915;54.352;9.074;2023-07-31T10:14:57;3.93;;;1.77;;
21507;SDS011;10915;54.352;9.074;2023-07-31T10:17:24;4.17;;;2.30;;
21507;SDS011;10915;54.352;9.074;2023-07-31T10:19:51;4.00;;;1.50;;
21507;SDS011;10915;54.352;9.074;2023-07-31T10:22:18;2.43;;;1.50;;
21507;SDS011;10915;54.352;9.074;2023-07-31T10:24:45;3.50;;;1.77;;
21507;SDS011;10915;54.352;9.074;2023-07-31T10:27:11;5.00;;;1.77;;
21507;SDS011;10915;54.352;9.074;2023-07-31T10:29:41;6.40;;;2.90;;
21507;SDS011;10915;54.352;9.074;2023-07-31T10:32:09;4.30;;;2.03;;
21507;SDS011;10915;54.352;9.074;2023-07-31T10:34:36;3.57;;;1.63;;
21507;SDS011;10915;54.352;9.074;2023-07-31T10:44:59;3.57;;;2.07;;
21507;SDS011;10915;54.352;9.074;2023-07-31T10:47:29;3.13;;;1.70;;
21507;SDS011;10915;54.352;9.074;2023-07-31T10:52:58;4.30;;;1.93;;
21507;SDS011;10915;54.352;9.074;2023-07-31T10:55:41;4.07;;;2.30;;
21507;SDS011;10915;54.352;9.074;2023-07-31T10:58:09;3.53;;;2.00;;
21507;SDS011;10915;54.352;9.074;2023-07-31T11:00:42;3.50;;;1.70;;
21507;SDS011;10915;54.352;9.074;2023-07-31T11:03:13;2.40;;;1.40;;
21507;SDS011;10915;54.352;9.074;2023-07-31T11:08:28;3.00;;;1.67;;
21507;SDS011;10915;54.352;9.074;2023-07-31T11:13:30;2.13;;;1.40;;
21507;SDS011;10915;54.352;9.074;2023-07-31T11:15:56;3.07;;;1.40;;
21507;SDS011;10915;54.352;9.074;2023-07-31T11:18:22;2.37;;;1.53;;
21507;SDS011;10915;54.352;9.074;2023-07-31T11:20:48;2.93;;;1.60;;
21507;SDS011;10915;54.352;9.074;2023-07-31T11:23:16;3.63;;;1.40;;
21507;SDS011;10915;54.352;9.074;2023-07-31T11:25:42;2.33;;;1.30;;
21507;SDS011;10915;54.352;9.074;2023-07-31T11:28:09;4.50;;;1.40;;
21507;SDS011;10915;54.352;9.074;2023-07-31T11:30:35;1.80;;;1.13;;
21507;SDS011;10915;54.352;9.074;2023-07-31T11:33:02;3.30;;;1.80;;
21507;SDS011;10915;54.352;9.074;2023-07-31T11:35:30;2.43;;;1.37;;
21507;SDS011;10915;54.352;9.074;2023-07-31T11:38:00;3.10;;;1.40;;
21507;SDS011;10915;54.352;9.074;2023-07-31T11:40:26;3.53;;;1.17;;
21507;SDS011;10915;54.352;9.074;2023-07-31T11:42:56;2.97;;;1.30;;
21507;SDS011;10915;54.352;9.074;2023-07-31T11:45:24;2.87;;;1.30;;
21507;SDS011;10915;54.352;9.074;2023-07-31T11:47:51;3.37;;;1.50;;
21507;SDS011;10915;54.352;9.074;2023-07-31T11:50:18;2.93;;;1.40;;
21507;SDS011;10915;54.352;9.074;2023-07-31T11:52:44;3.53;;;1.57;;
21507;SDS011;10915;54.352;9.074;2023-07-31T11:55:11;2.83;;;1.40;;
21507;SDS011;10915;54.352;9.074;2023-07-31T11:57:40;3.63;;;1.73;;
21507;SDS011;10915;54.352;9.074;2023-07-31T12:00:09;1.60;;;1.20;;
21507;SDS011;10915;54.352;9.074;2023-07-31T12:02:38;2.60;;;1.60;;
21507;SDS011;10915;54.352;9.074;2023-07-31T12:05:05;2.57;;;1.53;;
21507;SDS011;10915;54.352;9.074;2023-07-31T12:07:50;2.83;;;1.77;;
21507;SDS011;10915;54.352;9.074;2023-07-31T12:10:28;3.63;;;1.40;;
21507;SDS011;10915;54.352;9.074;2023-07-31T12:15:37;5.50;;;1.23;;
21507;SDS011;10915;54.352;9.074;2023-07-31T12:18:11;2.30;;;1.00;;
21507;SDS011;10915;54.352;9.074;2023-07-31T12:20:44;2.50;;;1.27;;
21507;SDS011;10915;54.352;9.074;2023-07-31T12:23:12;2.07;;;1.07;;
21507;SDS011;10915;54.352;9.074;2023-07-31T12:25:42;2.33;;;1.40;;
21507;SDS011;10915;54.352;9.074;2023-07-31T12:28:08;1.80;;;1.27;;
21507;SDS011;10915;54.352;9.074;2023-07-31T12:30:37;2.73;;;1.30;;
21507;SDS011;10915;54.352;9.074;2023-07-31T12:33:05;3.60;;;1.60;;
21507;SDS011;10915;54.352;9.074;2023-07-31T12:35:35;2.63;;;1.40;;
21507;SDS011;10915;54.352;9.074;2023-07-31T12:38:02;2.67;;;1.20;;
21507;SDS011;10915;54.352;9.074;2023-07-31T12:40:28;2.57;;;1.00;;
21507;SDS011;10915;54.352;9.074;2023-07-31T12:42:53;1.73;;;0.90;;
21507;SDS011;10915;54.352;9.074;2023-07-31T12:45:19;1.87;;;1.00;;
21507;SDS011;10915;54.352;9.074;2023-07-31T12:47:46;1.23;;;1.00;;
21507;SDS011;10915;54.352;9.074;2023-07-31T12:50:11;1.60;;;0.90;;
21507;SDS011;10915;54.352;9.074;2023-07-31T12:52:37;1.97;;;1.37;;
21507;SDS011;10915;54.352;9.074;2023-07-31T12:55:03;1.67;;;1.30;;
21507;SDS011;10915;54.352;9.074;2023-07-31T12:57:29;1.97;;;1.10;;
21507;SDS011;10915;54.352;9.074;2023-07-31T12:59:55;2.60;;;1.30;;
21507;SDS011;10915;54.352;9.074;2023-07-31T13:02:21;1.73;;;1.10;;
21507;SDS011;10915;54.352;9.074;2023-07-31T13:04:46;2.33;;;1.07;;
21507;SDS011;10915;54.352;9.074;2023-07-31T13:07:12;1.80;;;1.10;;
21507;SDS011;10915;54.352;9.074;2023-07-31T13:09:38;2.00;;;1.03;;
21507;SDS011;10915;54.352;9.074;2023-07-31T13:12:03;0.83;;;0.67;;
21507;SDS011;10915;54.352;9.074;2023-07-31T13:14:29;2.53;;;0.90;;
21507;SDS011;10915;54.352;9.074;2023-07-31T13:16:55;2.97;;;0.93;;
21507;SDS011;10915;54.352;9.074;2023-07-31T13:19:20;1.90;;;1.10;;
21507;SDS011;10915;54.352;9.074;2023-07-31T13:21:46;1.40;;;0.83;;
21507;SDS011;10915;54.352;9.074;2023-07-31T13:24:12;1.20;;;0.90;;
21507;SDS011;10915;54.352;9.074;2023-07-31T13:26:38;1.27;;;0.70;;
21507;SDS011;10915;54.352;9.074;2023-07-31T13:29:03;1.57;;;1.10;;
21507;SDS011;10915;54.352;9.074;2023-07-31T13:31:29;1.37;;;0.87;;
21507;SDS011;10915;54.352;9.074;2023-07-31T13:33:54;1.60;;;1.10;;
21507;SDS011;10915;54.352;9.074;2023-07-31T13:36:20;2.33;;;0.80;;
21507;SDS011;10915;54.352;9.074;2023-07-31T13:38:45;1.87;;;0.90;;
21507;SDS011;10915;54.352;9.074;2023-07-31T13:41:11;1.17;;;0.77;;
21507;SDS011;10915;54.352;9.074;2023-07-31T13:43:37;1.80;;;1.13;;
21507;SDS011;10915;54.352;9.074;2023-07-31T13:46:02;1.70;;;1.00;;
21507;SDS011;10915;54.352;9.074;2023-07-31T13:48:31;1.83;;;0.80;;
21507;SDS011;10915;54.352;9.074;2023-07-31T13:50:59;1.93;;;1.30;;
21507;SDS011;10915;54.352;9.074;2023-07-31T13:53:25;2.03;;;1.23;;
21507;SDS011;10915;54.352;9.074;2023-07-31T13:55:50;2.00;;;1.17;;
21507;SDS011;10915;54.352;9.074;2023-07-31T13:58:17;2.50;;;1.00;;
21507;SDS011;10915;54.352;9.074;2023-07-31T14:00:42;1.10;;;0.93;;
21507;SDS011;10915;54.352;9.074;2023-07-31T14:03:08;1.20;;;1.10;;
21507;SDS011;10915;54.352;9.074;2023-07-31T14:05:34;0.90;;;0.90;;
21507;SDS011;10915;54.352;9.074;2023-07-31T14:08:00;1.47;;;1.17;;
21507;SDS011;10915;54.352;9.074;2023-07-31T14:10:26;1.20;;;0.90;;
21507;SDS011;10915;54.352;9.074;2023-07-31T14:12:51;0.97;;;0.87;;
21507;SDS011;10915;54.352;9.074;2023-07-31T14:15:17;1.37;;;1.00;;
21507;SDS011;10915;54.352;9.074;2023-07-31T14:17:42;2.07;;;1.07;;
21507;SDS011;10915;54.352;9.074;2023-07-31T14:20:08;2.07;;;0.87;;
21507;SDS011;10915;54.352;9.074;2023-07-31T14:22:35;0.93;;;0.80;;
21507;SDS011;10915;54.352;9.074;2023-07-31T14:25:02;1.00;;;0.80;;
21507;SDS011;10915;54.352;9.074;2023-07-31T14:27:29;1.17;;;0.90;;
21507;SDS011;10915;54.352;9.074;2023-07-31T14:29:54;1.37;;;0.90;;
21507;SDS011;10915;54.352;9.074;2023-07-31T14:32:21;0.83;;;0.70;;
21507;SDS011;10915;54.352;9.074;2023-07-31T14:34:50;1.77;;;1.20;;
21507;SDS011;10915;54.352;9.074;2023-07-31T14:37:16;1.27;;;1.13;;
21507;SDS011;10915;54.352;9.074;2023-07-31T14:39:42;3.87;;;1.70;;
21507;SDS011;10915;54.352;9.074;2023-07-31T14:42:08;1.70;;;1.57;;
21507;SDS011;10915;54.352;9.074;2023-07-31T14:44:34;3.60;;;1.73;;
21507;SDS011;10915;54.352;9.074;2023-07-31T14:47:00;1.70;;;1.60;;
21507;SDS011;10915;54.352;9.074;2023-07-31T14:49:25;2.40;;;1.73;;
21507;SDS011;10915;54.352;9.074;2023-07-31T14:51:53;2.25;;;1.63;;
21507;SDS011;10915;54.352;9.074;2023-07-31T14:54:19;1.97;;;1.63;;
21507;SDS011;10915;54.352;9.074;2023-07-31T14:56:44;3.00;;;1.60;;
21507;SDS011;10915;54.352;9.074;2023-07-31T14:59:10;2.40;;;1.60;;
21507;SDS011;10915;54.352;9.074;2023-07-31T15:01:36;2.40;;;1.93;;
21507;SDS011;10915;54.352;9.074;2023-07-31T15:04:02;2.07;;;1.50;;
21507;SDS011;10915;54.352;9.074;2023-07-31T15:06:28;5.17;;;1.27;;
21507;SDS011;10915;54.352;9.074;2023-07-31T15:08:53;1.00;;;0.80;;
21507;SDS011;10915;54.352;9.074;2023-07-31T15:11:19;2.97;;;1.37;;
21507;SDS011;10915;54.352;9.074;2023-07-31T15:13:45;1.33;;;1.10;;
21507;SDS011;10915;54.352;9.074;2023-07-31T15:16:10;1.33;;;0.93;;